sensor_id;sensor_type;location;lat;lon;timestamp;P1;durP1;ratioP1;P2;durP2;ratioP2
56593;SDS011;42474;51.660;5.824;2023-11-21T15:50:53;31.58;;;10;;
56593;SDS011;42474;51.660;5.824;2023-11-21T15:54:53;26.36;;;9.9;;
56593;SDS011;42474;51.660;5.824;2023-11-21T15:58:53;22.15;;;8.3;;
56593;SDS011;42474;51.660;5.824;2023-11-21T16:02:53;17.94;;;6.96;;
56593;SDS011;42474;51.660;5.824;2023-11-21T16:06:53;17.8;;;6.91;;
56593;SDS011;42474;51.660;5.824;2023-11-21T16:10:53;18.56;;;6.9;;
56593;SDS011;42474;51.660;5.824;2023-11-21T16:14:53;16.29;;;6.81;;
56593;SDS011;42474;51.660;5.824;2023-11-21T16:18:53;14.78;;;5.99;;
56593;SDS011;42474;51.660;5.824;2023-11-21T16:22:53;13.44;;;5.9;;
56593;SDS011;42474;51.660;5.824;2023-11-21T16:26:53;13.21;;;5.93;;
56593;SDS011;42474;51.660;5.824;2023-11-21T16:30:53;12.07;;;6;;
56593;SDS011;42474;51.660;5.824;2023-11-21T16:34:53;14.26;;;5.6;;
56593;SDS011;42474;51.660;5.824;2023-11-21T16:38:53;12.13;;;5.47;;
56593;SDS011;42474;51.660;5.824;2023-11-21T16:42:53;11.68;;;5.76;;
56593;SDS011;42474;51.660;5.824;2023-11-21T16:46:53;12.45;;;5.48;;
56593;SDS011;42474;51.660;5.824;2023-11-21T16:50:53;9.88;;;5.06;;
56593;SDS011;42474;51.660;5.824;2023-11-21T16:54:53;10.38;;;4.97;;
56593;SDS011;42474;51.660;5.824;2023-11-21T16:58:53;10.41;;;5.25;;
56593;SDS011;42474;51.660;5.824;2023-11-21T17:02:53;10.43;;;4.83;;
56593;SDS011;42474;51.660;5.824;2023-11-21T17:06:53;9.26;;;4.65;;
56593;SDS011;42474;51.660;5.824;2023-11-21T17:10:53;9.75;;;4.78;;
56593;SDS011;42474;51.660;5.824;2023-11-21T17:14:53;8.78;;;4.57;;
56593;SDS011;42474;51.660;5.824;2023-11-21T17:18:53;9.34;;;4.28;;
56593;SDS011;42474;51.660;5.824;2023-11-21T17:22:53;7.06;;;4.57;;
56593;SDS011;42474;51.660;5.824;2023-11-21T17:26:53;6.67;;;4.46;;
56593;SDS011;42474;51.660;5.824;2023-11-21T17:30:53;8.8;;;4.32;;
56593;SDS011;42474;51.660;5.824;2023-11-21T17:34:53;7.42;;;4.04;;
56593;SDS011;42474;51.660;5.824;2023-11-21T17:38:53;9.78;;;4.67;;
56593;SDS011;42474;51.660;5.824;2023-11-21T17:42:54;9.12;;;4.43;;
56593;SDS011;42474;51.660;5.824;2023-11-21T17:46:53;7;;;4.22;;
56593;SDS011;42474;51.660;5.824;2023-11-21T17:50:53;6.87;;;3.9;;
56593;SDS011;42474;51.660;5.824;2023-11-21T17:54:53;7.56;;;4.35;;
56593;SDS011;42474;51.660;5.824;2023-11-21T17:58:53;9.61;;;4.47;;
56593;SDS011;42474;51.660;5.824;2023-11-21T18:02:53;8.73;;;4.95;;
56593;SDS011;42474;51.660;5.824;2023-11-21T18:06:53;9.82;;;4.6;;
56593;SDS011;42474;51.660;5.824;2023-11-21T18:10:53;10.45;;;4.96;;
56593;SDS011;42474;51.660;5.824;2023-11-21T18:14:53;7.44;;;3.86;;
56593;SDS011;42474;51.660;5.824;2023-11-21T18:18:53;9.63;;;4.84;;
56593;SDS011;42474;51.660;5.824;2023-11-21T18:22:53;8.97;;;4.81;;
56593;SDS011;42474;51.660;5.824;2023-11-21T18:26:53;9.3;;;4.21;;
56593;SDS011;42474;51.660;5.824;2023-11-21T18:30:53;9.76;;;4.05;;
56593;SDS011;42474;51.660;5.824;2023-11-21T18:34:53;8.51;;;4.99;;
56593;SDS011;42474;51.660;5.824;2023-11-21T18:38:53;7.46;;;4.26;;
56593;SDS011;42474;51.660;5.824;2023-11-21T18:42:53;7.28;;;4.25;;
56593;SDS011;42474;51.660;5.824;2023-11-21T18:46:53;7.23;;;3.91;;
56593;SDS011;42474;51.660;5.824;2023-11-21T18:50:53;7.65;;;4.26;;
56593;SDS011;42474;51.660;5.824;2023-11-21T18:54:53;7.29;;;4.03;;
56593;SDS011;42474;51.660;5.824;2023-11-21T18:58:53;6.41;;;3.57;;
56593;SDS011;42474;51.660;5.824;2023-11-21T19:02:53;8.9;;;4.13;;
56593;SDS011;42474;51.660;5.824;2023-11-21T19:06:53;10.85;;;4.47;;
56593;SDS011;42474;51.660;5.824;2023-11-21T19:10:53;6.47;;;3.66;;
56593;SDS011;42474;51.660;5.824;2023-11-21T19:14:53;4.78;;;3.5;;
56593;SDS011;42474;51.660;5.824;2023-11-21T19:18:53;7.47;;;3.85;;
56593;SDS011;42474;51.660;5.824;2023-11-21T19:22:53;6.98;;;3.86;;
56593;SDS011;42474;51.660;5.824;2023-11-21T19:30:53;9.23;;;3.55;;
56593;SDS011;42474;51.660;5.824;2023-11-21T19:34:53;7.29;;;3.93;;
56593;SDS011;42474;51.660;5.824;2023-11-21T19:38:53;6.9;;;3.9;;
56593;SDS011;42474;51.660;5.824;2023-11-21T19:42:53;5.63;;;3.49;;
56593;SDS011;42474;51.660;5.824;2023-11-21T19:46:53;7.12;;;3.84;;
56593;SDS011;42474;51.660;5.824;2023-11-21T19:50:53;5.71;;;3.44;;
56593;SDS011;42474;51.660;5.824;2023-11-21T19:54:53;5.6;;;3.54;;
56593;SDS011;42474;51.660;5.824;2023-11-21T19:58:53;6.12;;;3.91;;
56593;SDS011;42474;51.660;5.824;2023-11-21T20:02:53;8.08;;;3.66;;
56593;SDS011;42474;51.660;5.824;2023-11-21T20:06:53;5.14;;;3.74;;
56593;SDS011;42474;51.660;5.824;2023-11-21T20:10:53;6.48;;;3.34;;
56593;SDS011;42474;51.660;5.824;2023-11-21T20:14:53;6.9;;;3.7;;
56593;SDS011;42474;51.660;5.824;2023-11-21T20:18:53;6.77;;;3.81;;
56593;SDS011;42474;51.660;5.824;2023-11-21T20:22:53;5.03;;;3.17;;
56593;SDS011;42474;51.660;5.824;2023-11-21T20:26:55;4.15;;;3.12;;
56593;SDS011;42474;51.660;5.824;2023-11-21T20:30:53;7.53;;;3.78;;
56593;SDS011;42474;51.660;5.824;2023-11-21T20:34:53;10.28;;;3.85;;
56593;SDS011;42474;51.660;5.824;2023-11-21T20:38:53;7.28;;;3.29;;
56593;SDS011;42474;51.660;5.824;2023-11-21T20:42:53;4.14;;;2.8;;
56593;SDS011;42474;51.660;5.824;2023-11-21T20:46:53;5.2;;;3.16;;
56593;SDS011;42474;51.660;5.824;2023-11-21T20:50:53;7.35;;;3.41;;
56593;SDS011;42474;51.660;5.824;2023-11-21T20:54:53;5.17;;;3.19;;
56593;SDS011;42474;51.660;5.824;2023-11-21T20:58:53;5.2;;;3.14;;
56593;SDS011;42474;51.660;5.824;2023-11-21T21:02:53;5.8;;;3.21;;
56593;SDS011;42474;51.660;5.824;2023-11-21T21:06:53;5.64;;;3.21;;
56593;SDS011;42474;51.660;5.824;2023-11-21T21:10:53;4.05;;;2.93;;
56593;SDS011;42474;51.660;5.824;2023-11-21T21:14:55;8.76;;;3.05;;
56593;SDS011;42474;51.660;5.824;2023-11-21T21:18:54;9.13;;;3;;
56593;SDS011;42474;51.660;5.824;2023-11-21T21:22:53;6.06;;;2.9;;
56593;SDS011;42474;51.660;5.824;2023-11-21T21:26:53;8.85;;;3.43;;
56593;SDS011;42474;51.660;5.824;2023-11-21T21:30:53;18.01;;;3.5;;
56593;SDS011;42474;51.660;5.824;2023-11-21T21:34:53;6.11;;;2.84;;
56593;SDS011;42474;51.660;5.824;2023-11-21T21:38:54;6.23;;;2.82;;
56593;SDS011;42474;51.660;5.824;2023-11-21T21:42:55;6.39;;;3.27;;
56593;SDS011;42474;51.660;5.824;2023-11-21T21:46:53;6.47;;;3.33;;
56593;SDS011;42474;51.660;5.824;2023-11-21T21:50:53;5.47;;;3.4;;
56593;SDS011;42474;51.660;5.824;2023-11-21T21:54:53;6.24;;;3.44;;
56593;SDS011;42474;51.660;5.824;2023-11-21T21:58:53;4.76;;;2.96;;
56593;SDS011;42474;51.660;5.824;2023-11-21T22:02:53;4.45;;;3.26;;
56593;SDS011;42474;51.660;5.824;2023-11-21T22:06:53;6.52;;;3.37;;
56593;SDS011;42474;51.660;5.824;2023-11-21T22:10:53;5.2;;;2.92;;
56593;SDS011;42474;51.660;5.824;2023-11-21T22:14:53;6.07;;;3.29;;
56593;SDS011;42474;51.660;5.824;2023-11-21T22:18:53;6.07;;;3.38;;
56593;SDS011;42474;51.660;5.824;2023-11-21T22:22:53;4.89;;;3.22;;
56593;SDS011;42474;51.660;5.824;2023-11-21T22:26:53;5.28;;;2.93;;
56593;SDS011;42474;51.660;5.824;2023-11-21T22:30:53;5.67;;;3.23;;
56593;SDS011;42474;51.660;5.824;2023-11-21T22:34:53;6.06;;;3.54;;
56593;SDS011;42474;51.660;5.824;2023-11-21T22:38:53;5.01;;;3.01;;
56593;SDS011;42474;51.660;5.824;2023-11-21T22:42:53;6.42;;;3.45;;
56593;SDS011;42474;51.660;5.824;2023-11-21T22:46:53;5.17;;;3.28;;
56593;SDS011;42474;51.660;5.824;2023-11-21T22:50:53;5.11;;;3.52;;
56593;SDS011;42474;51.660;5.824;2023-11-21T22:54:53;6.22;;;3.25;;
56593;SDS011;42474;51.660;5.824;2023-11-21T22:58:53;4.95;;;3.51;;
56593;SDS011;42474;51.660;5.824;2023-11-21T23:02:53;5.23;;;3.38;;
56593;SDS011;42474;51.660;5.824;2023-11-21T23:06:53;5.36;;;3.81;;
56593;SDS011;42474;51.660;5.824;2023-11-21T23:10:53;4.35;;;2.7;;
56593;SDS011;42474;51.660;5.824;2023-11-21T23:14:53;3.43;;;2.59;;
56593;SDS011;42474;51.660;5.824;2023-11-21T23:18:53;4.76;;;3.15;;
56593;SDS011;42474;51.660;5.824;2023-11-21T23:22:53;4.17;;;3.11;;
56593;SDS011;42474;51.660;5.824;2023-11-21T23:26:53;3.58;;;2.81;;
56593;SDS011;42474;51.660;5.824;2023-11-21T23:30:53;4.48;;;3.25;;
56593;SDS011;42474;51.660;5.824;2023-11-21T23:34:53;3.53;;;3.13;;
56593;SDS011;42474;51.660;5.824;2023-11-21T23:38:53;4.79;;;3.55;;
56593;SDS011;42474;51.660;5.824;2023-11-21T23:42:53;4.07;;;3.26;;
56593;SDS011;42474;51.660;5.824;2023-11-21T23:46:53;4.04;;;3.38;;
56593;SDS011;42474;51.660;5.824;2023-11-21T23:50:53;4.58;;;3.23;;
56593;SDS011;42474;51.660;5.824;2023-11-21T23:54:53;3.88;;;3.15;;
56593;SDS011;42474;51.660;5.824;2023-11-21T23:58:53;4.17;;;3.63;;
